sensor_id;sensor_type;location;lat;lon;timestamp;temperature;humidity
69938;DHT22;57248;47.320;15.998;2022-07-21T00:01:18;15.72;75.50
69938;DHT22;57248;47.320;15.998;2022-07-21T00:03:44;15.72;75.60
69938;DHT22;57248;47.320;15.998;2022-07-21T00:06:09;15.73;74.76
69938;DHT22;57248;47.320;15.998;2022-07-21T00:08:35;15.65;75.45
69938;DHT22;57248;47.320;15.998;2022-07-21T00:11:00;15.51;75.43
69938;DHT22;57248;47.320;15.998;2022-07-21T00:13:26;15.51;74.46
69938;DHT22;57248;47.320;15.998;2022-07-21T00:15:52;15.48;75.00
69938;DHT22;57248;47.320;15.998;2022-07-21T00:18:18;15.48;75.48
69938;DHT22;57248;47.320;15.998;2022-07-21T00:20:44;15.45;75.43
69938;DHT22;57248;47.320;15.998;2022-07-21T00:23:10;15.54;74.78
69938;DHT22;57248;47.320;15.998;2022-07-21T00:25:35;15.38;76.40
69938;DHT22;57248;47.320;15.998;2022-07-21T00:28:03;15.28;77.26
69938;DHT22;57248;47.320;15.998;2022-07-21T00:30:29;15.28;77.14
69938;DHT22;57248;47.320;15.998;2022-07-21T00:32:54;15.28;76.40
69938;DHT22;57248;47.320;15.998;2022-07-21T00:35:21;15.21;76.39
69938;DHT22;57248;47.320;15.998;2022-07-21T00:37:46;15.21;75.62
69938;DHT22;57248;47.320;15.998;2022-07-21T00:40:12;15.18;75.79
69938;DHT22;57248;47.320;15.998;2022-07-21T00:42:41;15.10;76.33
69938;DHT22;57248;47.320;15.998;2022-07-21T00:45:07;15.07;77.60
69938;DHT22;57248;47.320;15.998;2022-07-21T00:47:33;15.01;78.16
69938;DHT22;57248;47.320;15.998;2022-07-21T00:50:01;15.06;77.31
69938;DHT22;57248;47.320;15.998;2022-07-21T00:52:28;15.01;77.41
69938;DHT22;57248;47.320;15.998;2022-07-21T00:54:54;15.01;77.87
69938;DHT22;57248;47.320;15.998;2022-07-21T00:57:19;15.01;77.56
69938;DHT22;57248;47.320;15.998;2022-07-21T00:59:45;14.98;77.48
69938;DHT22;57248;47.320;15.998;2022-07-21T01:02:12;14.94;77.21
69938;DHT22;57248;47.320;15.998;2022-07-21T01:04:38;14.91;77.23
69938;DHT22;57248;47.320;15.998;2022-07-21T01:07:04;14.84;77.59
69938;DHT22;57248;47.320;15.998;2022-07-21T01:09:32;14.87;77.73
69938;DHT22;57248;47.320;15.998;2022-07-21T01:11:58;14.77;78.14
69938;DHT22;57248;47.320;15.998;2022-07-21T01:14:24;14.79;78.72
69938;DHT22;57248;47.320;15.998;2022-07-21T01:16:50;14.87;78.49
69938;DHT22;57248;47.320;15.998;2022-07-21T01:19:15;14.87;78.05
69938;DHT22;57248;47.320;15.998;2022-07-21T01:21:44;14.84;78.26
69938;DHT22;57248;47.320;15.998;2022-07-21T01:24:11;14.73;78.30
69938;DHT22;57248;47.320;15.998;2022-07-21T01:26:47;14.76;79.07
69938;DHT22;57248;47.320;15.998;2022-07-21T01:29:14;14.73;79.04
69938;DHT22;57248;47.320;15.998;2022-07-21T01:31:41;14.60;79.28
69938;DHT22;57248;47.320;15.998;2022-07-21T01:34:08;14.50;79.58
69938;DHT22;57248;47.320;15.998;2022-07-21T01:36:34;14.56;79.03
69938;DHT22;57248;47.320;15.998;2022-07-21T01:39:00;14.49;79.61
69938;DHT22;57248;47.320;15.998;2022-07-21T01:41:44;14.50;79.51
69938;DHT22;57248;47.320;15.998;2022-07-21T01:44:12;14.52;79.36
69938;DHT22;57248;47.320;15.998;2022-07-21T01:46:42;14.53;79.57
69938;DHT22;57248;47.320;15.998;2022-07-21T01:49:12;14.53;79.21
69938;DHT22;57248;47.320;15.998;2022-07-21T01:51:38;14.50;79.38
69938;DHT22;57248;47.320;15.998;2022-07-21T01:54:05;14.53;79.70
69938;DHT22;57248;47.320;15.998;2022-07-21T01:56:33;14.42;79.52
69938;DHT22;57248;47.320;15.998;2022-07-21T01:58:59;14.38;79.80
69938;DHT22;57248;47.320;15.998;2022-07-21T02:01:26;14.42;79.31
69938;DHT22;57248;47.320;15.998;2022-07-21T02:03:53;14.33;80.09
69938;DHT22;57248;47.320;15.998;2022-07-21T02:06:19;14.26;80.40
69938;DHT22;57248;47.320;15.998;2022-07-21T02:08:45;14.25;79.54
69938;DHT22;57248;47.320;15.998;2022-07-21T02:11:11;14.26;79.96
69938;DHT22;57248;47.320;15.998;2022-07-21T02:13:37;14.19;79.63
69938;DHT22;57248;47.320;15.998;2022-07-21T02:16:03;14.21;80.41
69938;DHT22;57248;47.320;15.998;2022-07-21T02:18:29;14.18;80.37
69938;DHT22;57248;47.320;15.998;2022-07-21T02:20:55;14.09;80.21
69938;DHT22;57248;47.320;15.998;2022-07-21T02:23:22;13.97;81.45
69938;DHT22;57248;47.320;15.998;2022-07-21T02:25:49;13.94;80.72
69938;DHT22;57248;47.320;15.998;2022-07-21T02:28:14;13.91;81.26
69938;DHT22;57248;47.320;15.998;2022-07-21T02:30:40;13.95;80.82
69938;DHT22;57248;47.320;15.998;2022-07-21T02:33:06;13.92;81.16
69938;DHT22;57248;47.320;15.998;2022-07-21T02:35:32;13.94;80.99
69938;DHT22;57248;47.320;15.998;2022-07-21T02:37:58;13.92;80.96
69938;DHT22;57248;47.320;15.998;2022-07-21T02:40:24;13.91;80.70
69938;DHT22;57248;47.320;15.998;2022-07-21T02:42:49;13.85;81.54
69938;DHT22;57248;47.320;15.998;2022-07-21T02:45:15;13.77;81.30
69938;DHT22;57248;47.320;15.998;2022-07-21T02:48:00;13.78;80.76
69938;DHT22;57248;47.320;15.998;2022-07-21T02:50:28;13.74;81.57
69938;DHT22;57248;47.320;15.998;2022-07-21T02:52:59;13.60;82.68
69938;DHT22;57248;47.320;15.998;2022-07-21T02:55:26;13.64;81.88
69938;DHT22;57248;47.320;15.998;2022-07-21T02:58:09;13.66;82.00
69938;DHT22;57248;47.320;15.998;2022-07-21T03:00:41;13.67;81.98
69938;DHT22;57248;47.320;15.998;2022-07-21T03:03:07;13.46;83.34
69938;DHT22;57248;47.320;15.998;2022-07-21T03:05:33;13.50;83.58
69938;DHT22;57248;47.320;15.998;2022-07-21T03:07:59;13.60;82.41
69938;DHT22;57248;47.320;15.998;2022-07-21T03:10:25;13.51;83.16
69938;DHT22;57248;47.320;15.998;2022-07-21T03:12:51;13.66;82.76
69938;DHT22;57248;47.320;15.998;2022-07-21T03:15:16;13.67;82.42
69938;DHT22;57248;47.320;15.998;2022-07-21T03:17:42;13.64;82.68
69938;DHT22;57248;47.320;15.998;2022-07-21T03:20:08;13.59;83.02
69938;DHT22;57248;47.320;15.998;2022-07-21T03:22:33;13.59;83.05
69938;DHT22;57248;47.320;15.998;2022-07-21T03:24:59;13.50;82.90
69938;DHT22;57248;47.320;15.998;2022-07-21T03:27:25;13.57;82.60
69938;DHT22;57248;47.320;15.998;2022-07-21T03:29:51;13.56;82.04
69938;DHT22;57248;47.320;15.998;2022-07-21T03:32:16;13.63;81.93
69938;DHT22;57248;47.320;15.998;2022-07-21T03:34:42;13.61;82.69
69938;DHT22;57248;47.320;15.998;2022-07-21T03:37:07;13.66;81.90
69938;DHT22;57248;47.320;15.998;2022-07-21T03:39:33;13.66;82.23
69938;DHT22;57248;47.320;15.998;2022-07-21T03:41:58;13.71;82.14
69938;DHT22;57248;47.320;15.998;2022-07-21T03:44:24;13.77;83.27
69938;DHT22;57248;47.320;15.998;2022-07-21T03:46:49;13.80;83.24
69938;DHT22;57248;47.320;15.998;2022-07-21T03:49:15;13.78;83.11
69938;DHT22;57248;47.320;15.998;2022-07-21T03:51:40;13.87;83.00
69938;DHT22;57248;47.320;15.998;2022-07-21T03:54:06;14.02;83.14
69938;DHT22;57248;47.320;15.998;2022-07-21T03:56:31;14.00;83.37
69938;DHT22;57248;47.320;15.998;2022-07-21T03:58:57;14.05;83.29
69938;DHT22;57248;47.320;15.998;2022-07-21T04:01:22;14.14;82.47
69938;DHT22;57248;47.320;15.998;2022-07-21T04:03:48;14.25;82.01
69938;DHT22;57248;47.320;15.998;2022-07-21T04:06:13;14.25;81.82
69938;DHT22;57248;47.320;15.998;2022-07-21T04:08:39;14.32;82.09
69938;DHT22;57248;47.320;15.998;2022-07-21T04:11:05;14.48;82.19
69938;DHT22;57248;47.320;15.998;2022-07-21T04:13:30;14.46;81.98
69938;DHT22;57248;47.320;15.998;2022-07-21T04:15:56;14.45;81.80
69938;DHT22;57248;47.320;15.998;2022-07-21T04:18:22;14.40;82.83
69938;DHT22;57248;47.320;15.998;2022-07-21T04:20:47;14.62;81.97
69938;DHT22;57248;47.320;15.998;2022-07-21T04:23:13;14.70;81.60
69938;DHT22;57248;47.320;15.998;2022-07-21T04:25:38;14.83;81.94
69938;DHT22;57248;47.320;15.998;2022-07-21T04:28:05;14.93;81.82
69938;DHT22;57248;47.320;15.998;2022-07-21T04:30:30;14.97;82.09
69938;DHT22;57248;47.320;15.998;2022-07-21T04:32:56;15.07;81.69
69938;DHT22;57248;47.320;15.998;2022-07-21T04:35:22;15.08;81.92
69938;DHT22;57248;47.320;15.998;2022-07-21T04:37:48;15.20;80.48
69938;DHT22;57248;47.320;15.998;2022-07-21T04:40:14;15.27;80.63
69938;DHT22;57248;47.320;15.998;2022-07-21T04:42:40;15.44;80.39
69938;DHT22;57248;47.320;15.998;2022-07-21T04:45:07;15.58;80.08
69938;DHT22;57248;47.320;15.998;2022-07-21T04:47:45;15.65;80.93
69938;DHT22;57248;47.320;15.998;2022-07-21T04:50:11;15.72;80.34
69938;DHT22;57248;47.320;15.998;2022-07-21T04:52:37;15.96;79.86
69938;DHT22;57248;47.320;15.998;2022-07-21T04:55:04;16.06;79.61
69938;DHT22;57248;47.320;15.998;2022-07-21T04:57:30;16.18;79.16
69938;DHT22;57248;47.320;15.998;2022-07-21T04:59:55;16.99;80.20
69938;DHT22;57248;47.320;15.998;2022-07-21T05:02:21;17.74;78.72
69938;DHT22;57248;47.320;15.998;2022-07-21T05:04:46;18.12;76.80
69938;DHT22;57248;47.320;15.998;2022-07-21T05:07:12;18.41;75.94
69938;DHT22;57248;47.320;15.998;2022-07-21T05:09:37;18.63;74.35
69938;DHT22;57248;47.320;15.998;2022-07-21T05:12:03;18.87;73.31
69938;DHT22;57248;47.320;15.998;2022-07-21T05:14:29;19.00;72.90
69938;DHT22;57248;47.320;15.998;2022-07-21T05:16:54;19.23;71.82
69938;DHT22;57248;47.320;15.998;2022-07-21T05:19:20;19.44;70.44
69938;DHT22;57248;47.320;15.998;2022-07-21T05:21:45;19.50;70.01
69938;DHT22;57248;47.320;15.998;2022-07-21T05:24:12;19.50;71.83
69938;DHT22;57248;47.320;15.998;2022-07-21T05:26:37;19.83;70.71
69938;DHT22;57248;47.320;15.998;2022-07-21T05:29:03;20.06;69.53
69938;DHT22;57248;47.320;15.998;2022-07-21T05:31:29;20.33;68.42
69938;DHT22;57248;47.320;15.998;2022-07-21T05:33:54;20.58;67.87
69938;DHT22;57248;47.320;15.998;2022-07-21T05:36:20;20.70;67.25
69938;DHT22;57248;47.320;15.998;2022-07-21T05:38:46;21.03;65.74
69938;DHT22;57248;47.320;15.998;2022-07-21T05:41:12;21.06;65.92
69938;DHT22;57248;47.320;15.998;2022-07-21T05:43:37;21.25;66.34
69938;DHT22;57248;47.320;15.998;2022-07-21T05:46:03;21.67;64.81
69938;DHT22;57248;47.320;15.998;2022-07-21T05:48:29;22.02;64.92
69938;DHT22;57248;47.320;15.998;2022-07-21T05:50:54;22.32;63.76
69938;DHT22;57248;47.320;15.998;2022-07-21T05:53:20;22.51;62.56
69938;DHT22;57248;47.320;15.998;2022-07-21T05:55:46;22.82;63.10
69938;DHT22;57248;47.320;15.998;2022-07-21T05:58:11;23.03;62.64
69938;DHT22;57248;47.320;15.998;2022-07-21T06:00:37;23.20;63.50
69938;DHT22;57248;47.320;15.998;2022-07-21T06:03:03;23.72;62.43
69938;DHT22;57248;47.320;15.998;2022-07-21T06:05:28;24.01;60.89
69938;DHT22;57248;47.320;15.998;2022-07-21T06:07:54;24.23;61.19
69938;DHT22;57248;47.320;15.998;2022-07-21T06:10:20;24.53;58.52
69938;DHT22;57248;47.320;15.998;2022-07-21T06:12:45;25.03;55.01
69938;DHT22;57248;47.320;15.998;2022-07-21T06:15:11;25.25;53.72
69938;DHT22;57248;47.320;15.998;2022-07-21T06:17:44;25.38;53.30
69938;DHT22;57248;47.320;15.998;2022-07-21T06:20:11;25.59;52.60
69938;DHT22;57248;47.320;15.998;2022-07-21T06:22:37;26.00;52.48
69938;DHT22;57248;47.320;15.998;2022-07-21T06:25:03;26.08;52.33
69938;DHT22;57248;47.320;15.998;2022-07-21T06:27:29;26.01;50.75
69938;DHT22;57248;47.320;15.998;2022-07-21T06:29:55;26.41;50.05
69938;DHT22;57248;47.320;15.998;2022-07-21T06:32:22;26.72;51.79
69938;DHT22;57248;47.320;15.998;2022-07-21T06:34:48;27.05;51.36
69938;DHT22;57248;47.320;15.998;2022-07-21T06:37:14;27.40;48.75
69938;DHT22;57248;47.320;15.998;2022-07-21T06:39:39;27.73;46.96
69938;DHT22;57248;47.320;15.998;2022-07-21T06:42:07;28.06;46.87
69938;DHT22;57248;47.320;15.998;2022-07-21T06:44:35;28.33;47.48
69938;DHT22;57248;47.320;15.998;2022-07-21T06:47:00;28.67;47.53
69938;DHT22;57248;47.320;15.998;2022-07-21T06:49:33;28.77;48.12
69938;DHT22;57248;47.320;15.998;2022-07-21T06:52:00;28.83;48.97
69938;DHT22;57248;47.320;15.998;2022-07-21T06:54:25;29.20;47.99
69938;DHT22;57248;47.320;15.998;2022-07-21T06:56:51;29.45;47.25
69938;DHT22;57248;47.320;15.998;2022-07-21T06:59:16;29.89;46.75
69938;DHT22;57248;47.320;15.998;2022-07-21T07:01:42;29.73;42.85
69938;DHT22;57248;47.320;15.998;2022-07-21T07:04:07;30.17;42.89
69938;DHT22;57248;47.320;15.998;2022-07-21T07:06:33;30.40;41.19
69938;DHT22;57248;47.320;15.998;2022-07-21T07:08:59;30.81;41.97
69938;DHT22;57248;47.320;15.998;2022-07-21T07:11:25;30.88;40.09
69938;DHT22;57248;47.320;15.998;2022-07-21T07:13:50;30.65;39.86
69938;DHT22;57248;47.320;15.998;2022-07-21T07:16:16;31.12;40.40
69938;DHT22;57248;47.320;15.998;2022-07-21T07:18:41;31.12;40.46
69938;DHT22;57248;47.320;15.998;2022-07-21T07:21:07;31.66;39.37
69938;DHT22;57248;47.320;15.998;2022-07-21T07:23:32;31.87;35.71
69938;DHT22;57248;47.320;15.998;2022-07-21T07:25:58;31.86;35.54
69938;DHT22;57248;47.320;15.998;2022-07-21T07:28:23;32.48;36.32
69938;DHT22;57248;47.320;15.998;2022-07-21T07:30:49;32.21;37.24
69938;DHT22;57248;47.320;15.998;2022-07-21T07:33:15;32.21;35.23
69938;DHT22;57248;47.320;15.998;2022-07-21T07:35:40;32.24;36.90
69938;DHT22;57248;47.320;15.998;2022-07-21T07:38:06;32.52;37.98
69938;DHT22;57248;47.320;15.998;2022-07-21T07:40:31;32.51;37.18
69938;DHT22;57248;47.320;15.998;2022-07-21T07:42:57;33.44;37.35
69938;DHT22;57248;47.320;15.998;2022-07-21T07:45:23;32.92;34.42
69938;DHT22;57248;47.320;15.998;2022-07-21T07:47:49;32.46;32.51
69938;DHT22;57248;47.320;15.998;2022-07-21T07:50:16;32.41;33.41
69938;DHT22;57248;47.320;15.998;2022-07-21T07:52:42;31.78;32.75
69938;DHT22;57248;47.320;15.998;2022-07-21T07:55:09;32.24;32.01
69938;DHT22;57248;47.320;15.998;2022-07-21T07:57:37;32.21;30.64
69938;DHT22;57248;47.320;15.998;2022-07-21T08:00:05;31.90;29.27
69938;DHT22;57248;47.320;15.998;2022-07-21T08:02:37;33.10;29.09
69938;DHT22;57248;47.320;15.998;2022-07-21T08:05:04;33.50;28.49
69938;DHT22;57248;47.320;15.998;2022-07-21T08:07:29;34.15;27.48
69938;DHT22;57248;47.320;15.998;2022-07-21T08:09:55;36.41;27.92
69938;DHT22;57248;47.320;15.998;2022-07-21T08:12:20;37.45;24.23
69938;DHT22;57248;47.320;15.998;2022-07-21T08:14:46;36.37;27.58
69938;DHT22;57248;47.320;15.998;2022-07-21T08:17:12;37.43;25.15
69938;DHT22;57248;47.320;15.998;2022-07-21T08:19:37;38.86;24.09
69938;DHT22;57248;47.320;15.998;2022-07-21T08:22:03;37.83;26.91
69938;DHT22;57248;47.320;15.998;2022-07-21T08:24:28;37.86;24.62
69938;DHT22;57248;47.320;15.998;2022-07-21T08:26:54;39.36;21.99
69938;DHT22;57248;47.320;15.998;2022-07-21T08:29:20;38.24;22.69
69938;DHT22;57248;47.320;15.998;2022-07-21T08:31:45;38.68;22.16
69938;DHT22;57248;47.320;15.998;2022-07-21T08:34:11;38.65;22.90
69938;DHT22;57248;47.320;15.998;2022-07-21T08:36:37;39.59;22.08
69938;DHT22;57248;47.320;15.998;2022-07-21T08:39:03;39.06;21.32
69938;DHT22;57248;47.320;15.998;2022-07-21T08:41:28;41.51;20.31
69938;DHT22;57248;47.320;15.998;2022-07-21T08:43:54;39.97;23.17
69938;DHT22;57248;47.320;15.998;2022-07-21T08:46:23;40.78;21.56
69938;DHT22;57248;47.320;15.998;2022-07-21T08:48:50;41.29;21.48
69938;DHT22;57248;47.320;15.998;2022-07-21T08:51:16;41.19;21.21
69938;DHT22;57248;47.320;15.998;2022-07-21T08:53:45;41.36;20.93
69938;DHT22;57248;47.320;15.998;2022-07-21T08:56:11;43.22;20.12
69938;DHT22;57248;47.320;15.998;2022-07-21T08:58:37;40.08;21.70
69938;DHT22;57248;47.320;15.998;2022-07-21T09:01:03;40.62;21.90
69938;DHT22;57248;47.320;15.998;2022-07-21T09:03:29;40.96;21.47
69938;DHT22;57248;47.320;15.998;2022-07-21T09:06:05;42.97;19.79
69938;DHT22;57248;47.320;15.998;2022-07-21T09:08:39;40.59;20.17
69938;DHT22;57248;47.320;15.998;2022-07-21T09:11:20;41.84;20.09
69938;DHT22;57248;47.320;15.998;2022-07-21T09:16:37;41.99;19.79
69938;DHT22;57248;47.320;15.998;2022-07-21T09:19:04;42.44;19.92
69938;DHT22;57248;47.320;15.998;2022-07-21T09:21:31;44.94;17.71
69938;DHT22;57248;47.320;15.998;2022-07-21T09:24:20;43.31;19.25
69938;DHT22;57248;47.320;15.998;2022-07-21T09:27:03;42.36;19.51
69938;DHT22;57248;47.320;15.998;2022-07-21T09:29:41;45.32;18.73
69938;DHT22;57248;47.320;15.998;2022-07-21T09:34:41;42.01;18.94
69938;DHT22;57248;47.320;15.998;2022-07-21T09:37:08;42.70;19.50
69938;DHT22;57248;47.320;15.998;2022-07-21T09:39:50;41.34;19.23
69938;DHT22;57248;47.320;15.998;2022-07-21T09:42:19;41.58;18.84
69938;DHT22;57248;47.320;15.998;2022-07-21T09:44:48;40.79;18.34
69938;DHT22;57248;47.320;15.998;2022-07-21T09:47:16;42.70;17.73
69938;DHT22;57248;47.320;15.998;2022-07-21T09:49:42;42.93;17.59
69938;DHT22;57248;47.320;15.998;2022-07-21T09:55:07;42.75;14.94
69938;DHT22;57248;47.320;15.998;2022-07-21T09:57:34;42.85;15.32
69938;DHT22;57248;47.320;15.998;2022-07-21T10:00:00;41.34;16.05
69938;DHT22;57248;47.320;15.998;2022-07-21T10:02:32;40.80;16.02
69938;DHT22;57248;47.320;15.998;2022-07-21T10:05:10;46.46;14.60
69938;DHT22;57248;47.320;15.998;2022-07-21T10:07:39;43.38;16.66
69938;DHT22;57248;47.320;15.998;2022-07-21T10:10:05;41.85;16.84
69938;DHT22;57248;47.320;15.998;2022-07-21T10:12:33;40.72;17.62
69938;DHT22;57248;47.320;15.998;2022-07-21T10:14:59;41.53;17.03
69938;DHT22;57248;47.320;15.998;2022-07-21T10:17:25;39.66;18.23
69938;DHT22;57248;47.320;15.998;2022-07-21T10:20:00;43.58;16.96
69938;DHT22;57248;47.320;15.998;2022-07-21T10:22:42;44.12;16.17
69938;DHT22;57248;47.320;15.998;2022-07-21T10:25:10;41.82;16.57
69938;DHT22;57248;47.320;15.998;2022-07-21T10:27:36;44.19;15.54
69938;DHT22;57248;47.320;15.998;2022-07-21T10:30:05;44.53;15.43
69938;DHT22;57248;47.320;15.998;2022-07-21T10:32:33;42.53;15.58
69938;DHT22;57248;47.320;15.998;2022-07-21T10:37:45;42.98;16.40
69938;DHT22;57248;47.320;15.998;2022-07-21T10:45:35;43.85;15.29
69938;DHT22;57248;47.320;15.998;2022-07-21T10:48:03;45.07;14.59
69938;DHT22;57248;47.320;15.998;2022-07-21T10:50:40;47.05;12.66
69938;DHT22;57248;47.320;15.998;2022-07-21T10:53:14;45.86;14.02
69938;DHT22;57248;47.320;15.998;2022-07-21T10:55:46;43.62;15.69
69938;DHT22;57248;47.320;15.998;2022-07-21T11:00:54;46.24;15.19
69938;DHT22;57248;47.320;15.998;2022-07-21T11:08:38;46.55;13.92
69938;DHT22;57248;47.320;15.998;2022-07-21T11:11:15;45.49;14.63
69938;DHT22;57248;47.320;15.998;2022-07-21T11:19:34;44.15;15.29
69938;DHT22;57248;47.320;15.998;2022-07-21T11:24:37;46.24;14.98
69938;DHT22;57248;47.320;15.998;2022-07-21T11:27:05;48.55;13.22
69938;DHT22;57248;47.320;15.998;2022-07-21T11:29:32;46.33;14.33
69938;DHT22;57248;47.320;15.998;2022-07-21T11:31:59;44.84;15.43
69938;DHT22;57248;47.320;15.998;2022-07-21T11:34:51;44.78;16.04
69938;DHT22;57248;47.320;15.998;2022-07-21T11:39:51;45.63;14.85
69938;DHT22;57248;47.320;15.998;2022-07-21T11:42:17;49.40;13.10
69938;DHT22;57248;47.320;15.998;2022-07-21T11:44:44;50.95;12.64
69938;DHT22;57248;47.320;15.998;2022-07-21T11:47:12;47.33;14.01
69938;DHT22;57248;47.320;15.998;2022-07-21T11:49:39;45.55;15.45
69938;DHT22;57248;47.320;15.998;2022-07-21T11:52:13;44.67;15.39
69938;DHT22;57248;47.320;15.998;2022-07-21T11:54:43;44.06;16.66
69938;DHT22;57248;47.320;15.998;2022-07-21T11:57:10;44.68;15.71
69938;DHT22;57248;47.320;15.998;2022-07-21T11:59:36;46.34;15.20
69938;DHT22;57248;47.320;15.998;2022-07-21T12:02:06;44.19;16.11
69938;DHT22;57248;47.320;15.998;2022-07-21T12:07:26;46.10;14.91
69938;DHT22;57248;47.320;15.998;2022-07-21T12:09:55;45.80;16.11
69938;DHT22;57248;47.320;15.998;2022-07-21T12:12:48;49.27;13.23
69938;DHT22;57248;47.320;15.998;2022-07-21T12:15:20;48.41;13.55
69938;DHT22;57248;47.320;15.998;2022-07-21T12:20:11;46.50;15.40
69938;DHT22;57248;47.320;15.998;2022-07-21T12:22:39;49.39;13.93
69938;DHT22;57248;47.320;15.998;2022-07-21T12:25:06;48.58;13.54
69938;DHT22;57248;47.320;15.998;2022-07-21T12:27:36;49.74;13.10
69938;DHT22;57248;47.320;15.998;2022-07-21T12:30:08;47.40;14.85
69938;DHT22;57248;47.320;15.998;2022-07-21T12:32:48;45.22;15.19
69938;DHT22;57248;47.320;15.998;2022-07-21T12:35:25;44.64;16.01
69938;DHT22;57248;47.320;15.998;2022-07-21T12:40:21;45.07;15.79
69938;DHT22;57248;47.320;15.998;2022-07-21T12:42:47;47.48;15.37
69938;DHT22;57248;47.320;15.998;2022-07-21T12:45:18;49.44;14.24
69938;DHT22;57248;47.320;15.998;2022-07-21T12:48:21;45.80;14.73
69938;DHT22;57248;47.320;15.998;2022-07-21T12:51:09;46.94;14.68
69938;DHT22;57248;47.320;15.998;2022-07-21T12:53:38;50.73;12.36
69938;DHT22;57248;47.320;15.998;2022-07-21T12:56:04;50.01;13.13
69938;DHT22;57248;47.320;15.998;2022-07-21T12:58:30;48.95;13.98
69938;DHT22;57248;47.320;15.998;2022-07-21T13:00:56;45.99;15.44
69938;DHT22;57248;47.320;15.998;2022-07-21T13:03:21;47.13;14.33
69938;DHT22;57248;47.320;15.998;2022-07-21T13:05:47;52.43;13.02
69938;DHT22;57248;47.320;15.998;2022-07-21T13:08:12;52.62;11.80
69938;DHT22;57248;47.320;15.998;2022-07-21T13:10:38;49.95;13.74
69938;DHT22;57248;47.320;15.998;2022-07-21T13:13:05;47.46;14.90
69938;DHT22;57248;47.320;15.998;2022-07-21T13:15:30;48.59;13.38
69938;DHT22;57248;47.320;15.998;2022-07-21T13:17:56;47.93;13.29
69938;DHT22;57248;47.320;15.998;2022-07-21T13:20:22;50.75;13.29
69938;DHT22;57248;47.320;15.998;2022-07-21T13:22:47;47.57;14.36
69938;DHT22;57248;47.320;15.998;2022-07-21T13:25:13;48.71;13.96
69938;DHT22;57248;47.320;15.998;2022-07-21T13:27:40;50.10;13.04
69938;DHT22;57248;47.320;15.998;2022-07-21T13:30:07;53.06;12.73
69938;DHT22;57248;47.320;15.998;2022-07-21T13:32:33;52.76;12.70
69938;DHT22;57248;47.320;15.998;2022-07-21T13:35:18;48.68;13.26
69938;DHT22;57248;47.320;15.998;2022-07-21T13:37:44;45.89;14.92
69938;DHT22;57248;47.320;15.998;2022-07-21T13:40:10;50.18;13.32
69938;DHT22;57248;47.320;15.998;2022-07-21T13:42:36;49.98;13.91
69938;DHT22;57248;47.320;15.998;2022-07-21T13:45:02;51.14;12.69
69938;DHT22;57248;47.320;15.998;2022-07-21T13:47:28;46.99;14.30
69938;DHT22;57248;47.320;15.998;2022-07-21T13:49:55;50.99;13.29
69938;DHT22;57248;47.320;15.998;2022-07-21T13:52:21;52.01;12.45
69938;DHT22;57248;47.320;15.998;2022-07-21T13:54:46;53.14;12.18
69938;DHT22;57248;47.320;15.998;2022-07-21T13:57:12;51.57;12.19
69938;DHT22;57248;47.320;15.998;2022-07-21T13:59:37;48.06;13.67
69938;DHT22;57248;47.320;15.998;2022-07-21T14:02:03;50.82;12.45
69938;DHT22;57248;47.320;15.998;2022-07-21T14:04:28;47.50;13.73
69938;DHT22;57248;47.320;15.998;2022-07-21T14:06:54;49.63;12.73
69938;DHT22;57248;47.320;15.998;2022-07-21T14:09:21;50.63;13.04
69938;DHT22;57248;47.320;15.998;2022-07-21T14:11:47;47.90;14.37
69938;DHT22;57248;47.320;15.998;2022-07-21T14:14:13;49.15;13.77
69938;DHT22;57248;47.320;15.998;2022-07-21T14:16:46;47.67;14.67
69938;DHT22;57248;47.320;15.998;2022-07-21T14:19:11;46.95;15.04
69938;DHT22;57248;47.320;15.998;2022-07-21T14:21:37;47.02;14.94
69938;DHT22;57248;47.320;15.998;2022-07-21T14:24:03;45.75;15.84
69938;DHT22;57248;47.320;15.998;2022-07-21T14:26:47;45.96;15.53
69938;DHT22;57248;47.320;15.998;2022-07-21T14:29:12;45.22;16.21
69938;DHT22;57248;47.320;15.998;2022-07-21T14:31:38;46.88;15.22
69938;DHT22;57248;47.320;15.998;2022-07-21T14:34:03;44.87;16.01
69938;DHT22;57248;47.320;15.998;2022-07-21T14:36:29;46.72;15.18
69938;DHT22;57248;47.320;15.998;2022-07-21T14:38:55;47.06;15.05
69938;DHT22;57248;47.320;15.998;2022-07-21T14:41:21;48.21;14.67
69938;DHT22;57248;47.320;15.998;2022-07-21T14:43:46;45.52;15.64
69938;DHT22;57248;47.320;15.998;2022-07-21T14:46:14;45.97;15.29
69938;DHT22;57248;47.320;15.998;2022-07-21T14:49:00;44.94;16.01
69938;DHT22;57248;47.320;15.998;2022-07-21T14:51:25;44.01;16.95
69938;DHT22;57248;47.320;15.998;2022-07-21T14:53:51;45.96;15.60
69938;DHT22;57248;47.320;15.998;2022-07-21T14:56:16;47.06;15.11
69938;DHT22;57248;47.320;15.998;2022-07-21T14:58:42;49.30;13.87
69938;DHT22;57248;47.320;15.998;2022-07-21T15:01:08;45.97;16.09
69938;DHT22;57248;47.320;15.998;2022-07-21T15:03:33;44.99;16.12
69938;DHT22;57248;47.320;15.998;2022-07-21T15:05:59;46.07;15.56
69938;DHT22;57248;47.320;15.998;2022-07-21T15:08:24;48.51;14.18
69938;DHT22;57248;47.320;15.998;2022-07-21T15:10:51;45.35;15.81
69938;DHT22;57248;47.320;15.998;2022-07-21T15:13:16;42.51;17.91
69938;DHT22;57248;47.320;15.998;2022-07-21T15:15:42;44.09;17.27
69938;DHT22;57248;47.320;15.998;2022-07-21T15:18:09;43.97;16.99
69938;DHT22;57248;47.320;15.998;2022-07-21T15:20:36;44.61;16.83
69938;DHT22;57248;47.320;15.998;2022-07-21T15:23:02;43.31;17.17
69938;DHT22;57248;47.320;15.998;2022-07-21T15:25:27;45.05;16.20
69938;DHT22;57248;47.320;15.998;2022-07-21T15:27:53;42.97;17.79
69938;DHT22;57248;47.320;15.998;2022-07-21T15:30:18;41.45;18.93
69938;DHT22;57248;47.320;15.998;2022-07-21T15:32:44;43.34;18.03
69938;DHT22;57248;47.320;15.998;2022-07-21T15:35:10;42.85;17.63
69938;DHT22;57248;47.320;15.998;2022-07-21T15:37:36;43.86;17.74
69938;DHT22;57248;47.320;15.998;2022-07-21T15:40:04;45.01;17.18
69938;DHT22;57248;47.320;15.998;2022-07-21T15:42:30;42.75;18.36
69938;DHT22;57248;47.320;15.998;2022-07-21T15:44:59;42.53;18.47
69938;DHT22;57248;47.320;15.998;2022-07-21T15:47:25;39.36;20.94
69938;DHT22;57248;47.320;15.998;2022-07-21T15:49:51;38.74;21.55
69938;DHT22;57248;47.320;15.998;2022-07-21T15:52:17;40.42;20.61
69938;DHT22;57248;47.320;15.998;2022-07-21T15:54:43;38.41;22.55
69938;DHT22;57248;47.320;15.998;2022-07-21T15:57:08;36.77;23.93
69938;DHT22;57248;47.320;15.998;2022-07-21T15:59:35;36.33;24.47